TAF Text Data
IDs:
Format:
Raw Decoded Include METAR

Data at: 0941 UTC 20 Sep 2019

KDCA 200852Z 18003KT 10SM FEW250 14/10 A3031 RMK AO2 SLP261 T01440100 51005

KDCA 200840Z 2009/2112 VRB03KT P6SM FEW250
  FM201400 22005KT P6SM SKC